sensor_id;sensor_type;location;lat;lon;timestamp;temperature;humidity
32809;DHT22;19159;48.178;16.386;2024-03-08T00:01:53;9.90;82.50
32809;DHT22;19159;48.178;16.386;2024-03-08T00:04:19;9.90;82.70
32809;DHT22;19159;48.178;16.386;2024-03-08T00:06:44;9.80;83.00
32809;DHT22;19159;48.178;16.386;2024-03-08T00:09:12;9.90;82.90
32809;DHT22;19159;48.178;16.386;2024-03-08T00:11:37;9.90;82.70
32809;DHT22;19159;48.178;16.386;2024-03-08T00:14:03;9.90;82.70
32809;DHT22;19159;48.178;16.386;2024-03-08T00:16:32;9.90;82.80
32809;DHT22;19159;48.178;16.386;2024-03-08T00:18:59;9.90;82.50
32809;DHT22;19159;48.178;16.386;2024-03-08T00:21:24;9.90;82.40
32809;DHT22;19159;48.178;16.386;2024-03-08T00:23:52;9.80;82.40
32809;DHT22;19159;48.178;16.386;2024-03-08T00:26:19;9.60;83.00
32809;DHT22;19159;48.178;16.386;2024-03-08T00:28:45;9.70;83.30
32809;DHT22;19159;48.178;16.386;2024-03-08T00:31:11;9.70;83.40
32809;DHT22;19159;48.178;16.386;2024-03-08T00:33:36;9.70;83.40
32809;DHT22;19159;48.178;16.386;2024-03-08T00:36:02;9.80;83.30
32809;DHT22;19159;48.178;16.386;2024-03-08T00:38:28;9.80;83.50
32809;DHT22;19159;48.178;16.386;2024-03-08T00:40:53;9.70;84.20
32809;DHT22;19159;48.178;16.386;2024-03-08T00:43:19;9.80;83.30
32809;DHT22;19159;48.178;16.386;2024-03-08T00:45:44;9.80;83.30
32809;DHT22;19159;48.178;16.386;2024-03-08T00:48:10;9.90;83.10
32809;DHT22;19159;48.178;16.386;2024-03-08T00:50:36;9.90;83.10
32809;DHT22;19159;48.178;16.386;2024-03-08T00:53:02;9.90;83.20
32809;DHT22;19159;48.178;16.386;2024-03-08T00:55:28;9.90;83.20
32809;DHT22;19159;48.178;16.386;2024-03-08T00:57:55;9.90;83.40
32809;DHT22;19159;48.178;16.386;2024-03-08T01:00:20;9.80;83.50
32809;DHT22;19159;48.178;16.386;2024-03-08T01:02:47;9.80;83.60
32809;DHT22;19159;48.178;16.386;2024-03-08T01:05:13;9.60;83.70
32809;DHT22;19159;48.178;16.386;2024-03-08T01:07:39;9.60;83.90
32809;DHT22;19159;48.178;16.386;2024-03-08T01:10:05;9.70;83.90
32809;DHT22;19159;48.178;16.386;2024-03-08T01:12:37;9.70;84.10
32809;DHT22;19159;48.178;16.386;2024-03-08T01:15:03;9.70;84.10
32809;DHT22;19159;48.178;16.386;2024-03-08T01:17:29;9.80;84.20
32809;DHT22;19159;48.178;16.386;2024-03-08T01:19:55;9.80;84.30
32809;DHT22;19159;48.178;16.386;2024-03-08T01:22:20;9.70;84.60
32809;DHT22;19159;48.178;16.386;2024-03-08T01:24:48;9.70;84.90
32809;DHT22;19159;48.178;16.386;2024-03-08T01:27:13;9.70;84.90
32809;DHT22;19159;48.178;16.386;2024-03-08T01:29:39;9.70;84.90
32809;DHT22;19159;48.178;16.386;2024-03-08T01:32:05;9.70;85.00
32809;DHT22;19159;48.178;16.386;2024-03-08T01:34:31;9.70;84.80
32809;DHT22;19159;48.178;16.386;2024-03-08T01:36:58;9.60;85.00
32809;DHT22;19159;48.178;16.386;2024-03-08T01:39:25;9.70;84.90
32809;DHT22;19159;48.178;16.386;2024-03-08T01:41:51;9.70;84.70
32809;DHT22;19159;48.178;16.386;2024-03-08T01:44:16;9.70;84.60
32809;DHT22;19159;48.178;16.386;2024-03-08T01:46:46;9.70;84.90
32809;DHT22;19159;48.178;16.386;2024-03-08T01:49:12;9.70;85.00
32809;DHT22;19159;48.178;16.386;2024-03-08T01:51:40;9.60;85.00
32809;DHT22;19159;48.178;16.386;2024-03-08T01:54:06;9.60;85.10
32809;DHT22;19159;48.178;16.386;2024-03-08T01:56:32;9.50;85.70
32809;DHT22;19159;48.178;16.386;2024-03-08T01:58:59;9.60;85.80
32809;DHT22;19159;48.178;16.386;2024-03-08T02:01:25;9.60;85.70
32809;DHT22;19159;48.178;16.386;2024-03-08T02:03:51;9.60;85.60
32809;DHT22;19159;48.178;16.386;2024-03-08T02:06:17;9.60;85.40
32809;DHT22;19159;48.178;16.386;2024-03-08T02:08:43;9.60;85.50
32809;DHT22;19159;48.178;16.386;2024-03-08T02:11:09;9.70;85.60
32809;DHT22;19159;48.178;16.386;2024-03-08T02:13:35;9.70;85.50
32809;DHT22;19159;48.178;16.386;2024-03-08T02:16:01;9.70;85.60
32809;DHT22;19159;48.178;16.386;2024-03-08T02:18:28;9.60;86.00
32809;DHT22;19159;48.178;16.386;2024-03-08T02:20:55;9.50;86.10
32809;DHT22;19159;48.178;16.386;2024-03-08T02:23:22;9.50;86.50
32809;DHT22;19159;48.178;16.386;2024-03-08T02:25:50;9.50;86.80
32809;DHT22;19159;48.178;16.386;2024-03-08T02:28:16;9.40;87.00
32809;DHT22;19159;48.178;16.386;2024-03-08T02:30:44;9.30;87.20
32809;DHT22;19159;48.178;16.386;2024-03-08T02:33:13;9.40;87.30
32809;DHT22;19159;48.178;16.386;2024-03-08T02:35:42;9.40;87.40
32809;DHT22;19159;48.178;16.386;2024-03-08T02:38:11;9.40;87.10
32809;DHT22;19159;48.178;16.386;2024-03-08T02:40:37;9.30;87.40
32809;DHT22;19159;48.178;16.386;2024-03-08T02:43:03;9.40;87.40
32809;DHT22;19159;48.178;16.386;2024-03-08T02:45:30;9.30;87.50
32809;DHT22;19159;48.178;16.386;2024-03-08T02:47:56;9.40;87.50
32809;DHT22;19159;48.178;16.386;2024-03-08T02:50:22;9.30;87.80
32809;DHT22;19159;48.178;16.386;2024-03-08T02:52:48;9.40;87.60
32809;DHT22;19159;48.178;16.386;2024-03-08T02:55:14;9.40;87.40
32809;DHT22;19159;48.178;16.386;2024-03-08T02:57:43;9.50;87.40
32809;DHT22;19159;48.178;16.386;2024-03-08T03:00:13;9.50;87.40
32809;DHT22;19159;48.178;16.386;2024-03-08T03:02:39;9.40;87.50
32809;DHT22;19159;48.178;16.386;2024-03-08T03:05:05;9.50;87.60
32809;DHT22;19159;48.178;16.386;2024-03-08T03:07:32;9.50;87.50
32809;DHT22;19159;48.178;16.386;2024-03-08T03:09:59;9.50;87.20
32809;DHT22;19159;48.178;16.386;2024-03-08T03:12:27;9.50;87.30
32809;DHT22;19159;48.178;16.386;2024-03-08T03:14:53;9.50;87.20
32809;DHT22;19159;48.178;16.386;2024-03-08T03:17:18;9.50;87.40
32809;DHT22;19159;48.178;16.386;2024-03-08T03:19:45;9.50;87.80
32809;DHT22;19159;48.178;16.386;2024-03-08T03:22:12;9.40;87.70
32809;DHT22;19159;48.178;16.386;2024-03-08T03:24:38;9.50;88.10
32809;DHT22;19159;48.178;16.386;2024-03-08T03:27:07;9.50;88.00
32809;DHT22;19159;48.178;16.386;2024-03-08T03:29:39;9.50;87.80
32809;DHT22;19159;48.178;16.386;2024-03-08T03:32:14;9.50;87.50
32809;DHT22;19159;48.178;16.386;2024-03-08T03:34:40;9.60;87.50
32809;DHT22;19159;48.178;16.386;2024-03-08T03:37:07;9.50;87.60
32809;DHT22;19159;48.178;16.386;2024-03-08T03:39:40;9.60;87.70
32809;DHT22;19159;48.178;16.386;2024-03-08T03:42:17;9.60;87.50
32809;DHT22;19159;48.178;16.386;2024-03-08T03:44:47;9.60;87.50
32809;DHT22;19159;48.178;16.386;2024-03-08T03:47:13;9.60;87.60
32809;DHT22;19159;48.178;16.386;2024-03-08T03:49:42;9.60;87.50
32809;DHT22;19159;48.178;16.386;2024-03-08T03:52:08;9.70;87.50
32809;DHT22;19159;48.178;16.386;2024-03-08T03:54:34;9.70;87.20
32809;DHT22;19159;48.178;16.386;2024-03-08T03:57:00;9.70;87.40
32809;DHT22;19159;48.178;16.386;2024-03-08T03:59:26;9.60;87.40
32809;DHT22;19159;48.178;16.386;2024-03-08T04:01:53;9.60;87.60
32809;DHT22;19159;48.178;16.386;2024-03-08T04:04:20;9.60;87.50
32809;DHT22;19159;48.178;16.386;2024-03-08T04:06:45;9.60;87.60
32809;DHT22;19159;48.178;16.386;2024-03-08T04:09:11;9.70;87.50
32809;DHT22;19159;48.178;16.386;2024-03-08T04:11:38;9.70;87.20
32809;DHT22;19159;48.178;16.386;2024-03-08T04:14:04;9.60;87.40
32809;DHT22;19159;48.178;16.386;2024-03-08T04:16:30;9.40;87.70
32809;DHT22;19159;48.178;16.386;2024-03-08T04:18:57;9.20;88.00
32809;DHT22;19159;48.178;16.386;2024-03-08T04:21:23;9.20;88.80
32809;DHT22;19159;48.178;16.386;2024-03-08T04:23:48;9.20;88.30
32809;DHT22;19159;48.178;16.386;2024-03-08T04:26:14;9.20;88.30
32809;DHT22;19159;48.178;16.386;2024-03-08T04:28:40;9.20;88.70
32809;DHT22;19159;48.178;16.386;2024-03-08T04:31:05;9.20;88.60
32809;DHT22;19159;48.178;16.386;2024-03-08T04:33:32;9.20;88.80
32809;DHT22;19159;48.178;16.386;2024-03-08T04:35:58;9.30;88.60
32809;DHT22;19159;48.178;16.386;2024-03-08T04:38:23;9.20;88.90
32809;DHT22;19159;48.178;16.386;2024-03-08T04:40:50;9.20;89.00
32809;DHT22;19159;48.178;16.386;2024-03-08T04:43:16;9.30;89.00
32809;DHT22;19159;48.178;16.386;2024-03-08T04:45:44;9.30;89.10
32809;DHT22;19159;48.178;16.386;2024-03-08T04:48:10;9.40;89.10
32809;DHT22;19159;48.178;16.386;2024-03-08T04:50:37;9.30;89.00
32809;DHT22;19159;48.178;16.386;2024-03-08T04:53:03;9.20;89.20
32809;DHT22;19159;48.178;16.386;2024-03-08T04:55:30;9.20;90.00
32809;DHT22;19159;48.178;16.386;2024-03-08T04:57:55;9.30;89.20
32809;DHT22;19159;48.178;16.386;2024-03-08T05:00:21;9.20;89.20
32809;DHT22;19159;48.178;16.386;2024-03-08T05:02:47;9.20;89.30
32809;DHT22;19159;48.178;16.386;2024-03-08T05:05:12;9.10;89.50
32809;DHT22;19159;48.178;16.386;2024-03-08T05:07:41;9.10;89.80
32809;DHT22;19159;48.178;16.386;2024-03-08T05:10:09;9.10;89.80
32809;DHT22;19159;48.178;16.386;2024-03-08T05:12:34;9.10;89.60
32809;DHT22;19159;48.178;16.386;2024-03-08T05:15:00;9.10;90.00
32809;DHT22;19159;48.178;16.386;2024-03-08T05:17:26;9.00;90.10
32809;DHT22;19159;48.178;16.386;2024-03-08T05:19:51;8.90;90.10
32809;DHT22;19159;48.178;16.386;2024-03-08T05:22:17;8.90;90.20
32809;DHT22;19159;48.178;16.386;2024-03-08T05:24:44;8.80;90.20
32809;DHT22;19159;48.178;16.386;2024-03-08T05:27:10;8.80;90.30
32809;DHT22;19159;48.178;16.386;2024-03-08T05:29:36;8.80;90.10
32809;DHT22;19159;48.178;16.386;2024-03-08T05:32:02;8.70;90.40
32809;DHT22;19159;48.178;16.386;2024-03-08T05:34:29;8.60;90.50
32809;DHT22;19159;48.178;16.386;2024-03-08T05:36:55;8.60;90.60
32809;DHT22;19159;48.178;16.386;2024-03-08T05:39:20;8.60;90.70
32809;DHT22;19159;48.178;16.386;2024-03-08T05:41:46;8.70;90.50
32809;DHT22;19159;48.178;16.386;2024-03-08T05:44:13;8.80;90.70
32809;DHT22;19159;48.178;16.386;2024-03-08T05:46:39;8.90;90.50
32809;DHT22;19159;48.178;16.386;2024-03-08T05:49:05;8.90;90.40
32809;DHT22;19159;48.178;16.386;2024-03-08T05:51:35;8.90;90.30
32809;DHT22;19159;48.178;16.386;2024-03-08T05:54:05;9.00;90.20
32809;DHT22;19159;48.178;16.386;2024-03-08T05:56:34;9.10;90.50
32809;DHT22;19159;48.178;16.386;2024-03-08T05:59:01;9.20;90.20
32809;DHT22;19159;48.178;16.386;2024-03-08T06:01:28;9.20;90.10
32809;DHT22;19159;48.178;16.386;2024-03-08T06:03:54;9.30;90.10
32809;DHT22;19159;48.178;16.386;2024-03-08T06:06:23;9.40;90.00
32809;DHT22;19159;48.178;16.386;2024-03-08T06:08:49;9.20;89.70
32809;DHT22;19159;48.178;16.386;2024-03-08T06:11:16;9.10;89.80
32809;DHT22;19159;48.178;16.386;2024-03-08T06:13:45;9.10;89.80
32809;DHT22;19159;48.178;16.386;2024-03-08T06:16:12;8.90;90.10
32809;DHT22;19159;48.178;16.386;2024-03-08T06:18:38;8.50;90.90
32809;DHT22;19159;48.178;16.386;2024-03-08T06:21:08;8.50;91.20
32809;DHT22;19159;48.178;16.386;2024-03-08T06:23:37;8.50;91.40
32809;DHT22;19159;48.178;16.386;2024-03-08T06:26:09;8.60;91.40
32809;DHT22;19159;48.178;16.386;2024-03-08T06:28:35;8.80;91.10
32809;DHT22;19159;48.178;16.386;2024-03-08T06:31:01;8.70;90.90
32809;DHT22;19159;48.178;16.386;2024-03-08T06:33:28;8.70;90.90
32809;DHT22;19159;48.178;16.386;2024-03-08T06:35:54;8.60;91.00
32809;DHT22;19159;48.178;16.386;2024-03-08T06:38:23;8.50;91.10
32809;DHT22;19159;48.178;16.386;2024-03-08T06:40:49;8.50;91.10
32809;DHT22;19159;48.178;16.386;2024-03-08T06:43:14;8.60;91.00
32809;DHT22;19159;48.178;16.386;2024-03-08T06:45:47;8.60;91.20
32809;DHT22;19159;48.178;16.386;2024-03-08T06:48:17;8.40;91.40
32809;DHT22;19159;48.178;16.386;2024-03-08T06:50:47;8.30;91.70
32809;DHT22;19159;48.178;16.386;2024-03-08T06:53:13;8.40;91.60
32809;DHT22;19159;48.178;16.386;2024-03-08T06:55:39;8.20;92.00
32809;DHT22;19159;48.178;16.386;2024-03-08T06:58:05;8.30;92.20
32809;DHT22;19159;48.178;16.386;2024-03-08T07:00:32;8.40;92.00
32809;DHT22;19159;48.178;16.386;2024-03-08T07:02:58;8.50;91.70
32809;DHT22;19159;48.178;16.386;2024-03-08T07:05:30;8.50;91.60
32809;DHT22;19159;48.178;16.386;2024-03-08T07:07:56;8.60;91.70
32809;DHT22;19159;48.178;16.386;2024-03-08T07:10:22;8.60;91.70
32809;DHT22;19159;48.178;16.386;2024-03-08T07:12:50;8.80;91.50
32809;DHT22;19159;48.178;16.386;2024-03-08T07:15:16;8.90;91.30
32809;DHT22;19159;48.178;16.386;2024-03-08T07:17:41;9.10;91.20
32809;DHT22;19159;48.178;16.386;2024-03-08T07:20:10;9.20;91.10
32809;DHT22;19159;48.178;16.386;2024-03-08T07:22:39;9.20;91.30
32809;DHT22;19159;48.178;16.386;2024-03-08T07:25:08;9.20;90.90
32809;DHT22;19159;48.178;16.386;2024-03-08T07:27:53;9.20;91.00
32809;DHT22;19159;48.178;16.386;2024-03-08T07:30:24;9.10;91.00
32809;DHT22;19159;48.178;16.386;2024-03-08T07:33:08;9.30;91.00
32809;DHT22;19159;48.178;16.386;2024-03-08T07:35:37;9.30;90.90
32809;DHT22;19159;48.178;16.386;2024-03-08T07:38:07;9.30;90.80
32809;DHT22;19159;48.178;16.386;2024-03-08T07:44:19;9.40;90.80
32809;DHT22;19159;48.178;16.386;2024-03-08T07:50:57;9.60;90.60
32809;DHT22;19159;48.178;16.386;2024-03-08T07:57:18;9.40;90.60
32809;DHT22;19159;48.178;16.386;2024-03-08T07:59:59;9.30;91.00
32809;DHT22;19159;48.178;16.386;2024-03-08T08:02:41;9.30;91.00
32809;DHT22;19159;48.178;16.386;2024-03-08T08:05:07;9.40;90.80
32809;DHT22;19159;48.178;16.386;2024-03-08T08:07:35;9.50;90.70
32809;DHT22;19159;48.178;16.386;2024-03-08T08:10:01;9.30;90.80
32809;DHT22;19159;48.178;16.386;2024-03-08T08:12:27;9.40;90.80
32809;DHT22;19159;48.178;16.386;2024-03-08T08:14:54;9.60;90.80
32809;DHT22;19159;48.178;16.386;2024-03-08T08:17:21;9.60;90.70
32809;DHT22;19159;48.178;16.386;2024-03-08T08:19:50;9.50;90.60
32809;DHT22;19159;48.178;16.386;2024-03-08T08:22:16;9.60;90.60
32809;DHT22;19159;48.178;16.386;2024-03-08T08:24:43;9.40;90.70
32809;DHT22;19159;48.178;16.386;2024-03-08T08:27:09;9.40;90.70
32809;DHT22;19159;48.178;16.386;2024-03-08T08:29:37;9.30;90.70
32809;DHT22;19159;48.178;16.386;2024-03-08T08:32:08;9.10;91.00
32809;DHT22;19159;48.178;16.386;2024-03-08T08:34:36;9.00;91.20
32809;DHT22;19159;48.178;16.386;2024-03-08T08:37:01;8.90;91.50
32809;DHT22;19159;48.178;16.386;2024-03-08T08:39:27;9.00;91.40
32809;DHT22;19159;48.178;16.386;2024-03-08T08:41:53;9.10;91.30
32809;DHT22;19159;48.178;16.386;2024-03-08T08:44:18;9.20;91.10
32809;DHT22;19159;48.178;16.386;2024-03-08T08:46:44;9.40;91.10
32809;DHT22;19159;48.178;16.386;2024-03-08T08:49:10;9.30;91.10
32809;DHT22;19159;48.178;16.386;2024-03-08T08:51:49;9.10;91.30
32809;DHT22;19159;48.178;16.386;2024-03-08T08:54:15;8.70;92.00
32809;DHT22;19159;48.178;16.386;2024-03-08T08:56:42;8.50;92.40
32809;DHT22;19159;48.178;16.386;2024-03-08T08:59:10;8.60;92.40
32809;DHT22;19159;48.178;16.386;2024-03-08T09:01:39;8.80;92.40
32809;DHT22;19159;48.178;16.386;2024-03-08T09:04:05;8.70;92.30
32809;DHT22;19159;48.178;16.386;2024-03-08T09:06:31;8.60;92.60
32809;DHT22;19159;48.178;16.386;2024-03-08T09:08:57;8.20;93.40
32809;DHT22;19159;48.178;16.386;2024-03-08T09:11:23;8.10;94.00
32809;DHT22;19159;48.178;16.386;2024-03-08T09:13:51;8.10;94.10
32809;DHT22;19159;48.178;16.386;2024-03-08T09:16:16;8.40;93.70
32809;DHT22;19159;48.178;16.386;2024-03-08T09:18:42;8.50;93.70
32809;DHT22;19159;48.178;16.386;2024-03-08T09:21:08;8.70;93.40
32809;DHT22;19159;48.178;16.386;2024-03-08T09:23:36;8.90;93.20
32809;DHT22;19159;48.178;16.386;2024-03-08T09:26:02;9.20;93.00
32809;DHT22;19159;48.178;16.386;2024-03-08T09:28:29;9.30;92.80
32809;DHT22;19159;48.178;16.386;2024-03-08T09:30:58;9.40;92.50
32809;DHT22;19159;48.178;16.386;2024-03-08T09:33:24;9.30;92.50
32809;DHT22;19159;48.178;16.386;2024-03-08T09:35:50;9.50;92.60
32809;DHT22;19159;48.178;16.386;2024-03-08T09:38:16;9.50;92.50
32809;DHT22;19159;48.178;16.386;2024-03-08T09:40:42;9.20;92.80
32809;DHT22;19159;48.178;16.386;2024-03-08T09:43:11;9.10;93.30
32809;DHT22;19159;48.178;16.386;2024-03-08T09:45:38;8.90;93.70
32809;DHT22;19159;48.178;16.386;2024-03-08T09:48:13;8.80;94.00
32809;DHT22;19159;48.178;16.386;2024-03-08T09:50:40;8.90;94.00
32809;DHT22;19159;48.178;16.386;2024-03-08T09:53:11;8.60;94.50
32809;DHT22;19159;48.178;16.386;2024-03-08T09:55:38;8.50;95.10
32809;DHT22;19159;48.178;16.386;2024-03-08T09:58:08;8.90;94.70
32809;DHT22;19159;48.178;16.386;2024-03-08T10:00:54;9.00;94.50
32809;DHT22;19159;48.178;16.386;2024-03-08T10:03:23;9.30;94.20
32809;DHT22;19159;48.178;16.386;2024-03-08T10:05:48;9.60;94.10
32809;DHT22;19159;48.178;16.386;2024-03-08T10:08:14;9.70;93.90
32809;DHT22;19159;48.178;16.386;2024-03-08T10:10:40;9.70;93.50
32809;DHT22;19159;48.178;16.386;2024-03-08T10:13:09;9.60;93.60
32809;DHT22;19159;48.178;16.386;2024-03-08T10:15:39;9.70;93.50
32809;DHT22;19159;48.178;16.386;2024-03-08T10:18:05;9.90;93.60
32809;DHT22;19159;48.178;16.386;2024-03-08T10:20:32;9.80;93.70
32809;DHT22;19159;48.178;16.386;2024-03-08T10:23:02;9.70;93.80
32809;DHT22;19159;48.178;16.386;2024-03-08T10:25:33;9.60;94.00
32809;DHT22;19159;48.178;16.386;2024-03-08T10:27:59;9.60;94.20
32809;DHT22;19159;48.178;16.386;2024-03-08T10:30:25;9.60;94.00
32809;DHT22;19159;48.178;16.386;2024-03-08T10:32:51;9.70;94.10
32809;DHT22;19159;48.178;16.386;2024-03-08T10:35:17;10.00;93.80
32809;DHT22;19159;48.178;16.386;2024-03-08T10:37:50;9.70;93.50
32809;DHT22;19159;48.178;16.386;2024-03-08T10:40:26;9.60;94.40
32809;DHT22;19159;48.178;16.386;2024-03-08T10:42:56;9.50;94.50
32809;DHT22;19159;48.178;16.386;2024-03-08T10:50:47;10.60;93.50
32809;DHT22;19159;48.178;16.386;2024-03-08T10:53:17;11.60;93.60
32809;DHT22;19159;48.178;16.386;2024-03-08T10:55:44;12.00;92.00
32809;DHT22;19159;48.178;16.386;2024-03-08T10:58:10;11.40;90.90
32809;DHT22;19159;48.178;16.386;2024-03-08T11:00:36;11.70;91.70
32809;DHT22;19159;48.178;16.386;2024-03-08T11:03:03;12.20;91.20
32809;DHT22;19159;48.178;16.386;2024-03-08T11:05:37;12.20;90.10
32809;DHT22;19159;48.178;16.386;2024-03-08T11:08:18;12.60;90.40
32809;DHT22;19159;48.178;16.386;2024-03-08T11:10:53;13.40;90.90
32809;DHT22;19159;48.178;16.386;2024-03-08T11:13:41;14.50;86.60
32809;DHT22;19159;48.178;16.386;2024-03-08T11:16:12;14.80;82.70
32809;DHT22;19159;48.178;16.386;2024-03-08T11:18:38;13.80;80.80
32809;DHT22;19159;48.178;16.386;2024-03-08T11:21:04;13.50;82.90
32809;DHT22;19159;48.178;16.386;2024-03-08T11:23:37;13.10;82.20
32809;DHT22;19159;48.178;16.386;2024-03-08T11:26:17;12.70;82.00
32809;DHT22;19159;48.178;16.386;2024-03-08T11:28:43;12.50;83.20
32809;DHT22;19159;48.178;16.386;2024-03-08T11:33:36;12.40;83.30
32809;DHT22;19159;48.178;16.386;2024-03-08T11:36:10;12.40;83.80
32809;DHT22;19159;48.178;16.386;2024-03-08T11:38:45;12.40;84.00
32809;DHT22;19159;48.178;16.386;2024-03-08T11:41:15;12.20;83.10
32809;DHT22;19159;48.178;16.386;2024-03-08T11:43:43;12.60;82.40
32809;DHT22;19159;48.178;16.386;2024-03-08T11:46:11;13.20;83.10
32809;DHT22;19159;48.178;16.386;2024-03-08T11:48:40;15.90;78.40
32809;DHT22;19159;48.178;16.386;2024-03-08T11:51:13;16.50;72.00
32809;DHT22;19159;48.178;16.386;2024-03-08T11:53:40;15.40;71.90
32809;DHT22;19159;48.178;16.386;2024-03-08T11:56:13;14.30;73.50
32809;DHT22;19159;48.178;16.386;2024-03-08T11:58:39;13.70;75.80
32809;DHT22;19159;48.178;16.386;2024-03-08T12:01:10;13.00;77.70
32809;DHT22;19159;48.178;16.386;2024-03-08T12:03:42;12.80;79.20
32809;DHT22;19159;48.178;16.386;2024-03-08T12:06:11;12.60;80.00
32809;DHT22;19159;48.178;16.386;2024-03-08T12:08:39;12.40;80.80
32809;DHT22;19159;48.178;16.386;2024-03-08T12:11:05;12.30;81.10
32809;DHT22;19159;48.178;16.386;2024-03-08T12:13:32;11.90;82.30
32809;DHT22;19159;48.178;16.386;2024-03-08T12:15:59;11.80;83.50
32809;DHT22;19159;48.178;16.386;2024-03-08T12:18:26;11.90;83.80
32809;DHT22;19159;48.178;16.386;2024-03-08T12:21:07;11.90;84.30
32809;DHT22;19159;48.178;16.386;2024-03-08T12:23:37;11.80;84.50
32809;DHT22;19159;48.178;16.386;2024-03-08T12:26:13;11.70;84.10
32809;DHT22;19159;48.178;16.386;2024-03-08T12:28:40;11.20;86.00
32809;DHT22;19159;48.178;16.386;2024-03-08T12:31:11;11.00;87.50
32809;DHT22;19159;48.178;16.386;2024-03-08T12:33:50;11.00;88.00
32809;DHT22;19159;48.178;16.386;2024-03-08T12:36:17;11.20;87.50
32809;DHT22;19159;48.178;16.386;2024-03-08T12:48:15;11.80;85.50
32809;DHT22;19159;48.178;16.386;2024-03-08T12:50:41;11.40;85.20
32809;DHT22;19159;48.178;16.386;2024-03-08T12:53:10;11.50;85.60
32809;DHT22;19159;48.178;16.386;2024-03-08T12:55:36;11.50;85.40
32809;DHT22;19159;48.178;16.386;2024-03-08T12:58:02;11.70;85.30
32809;DHT22;19159;48.178;16.386;2024-03-08T13:00:28;11.70;84.90
32809;DHT22;19159;48.178;16.386;2024-03-08T13:02:54;11.60;85.10
32809;DHT22;19159;48.178;16.386;2024-03-08T13:05:21;11.60;85.10
32809;DHT22;19159;48.178;16.386;2024-03-08T13:07:46;11.80;84.60
32809;DHT22;19159;48.178;16.386;2024-03-08T13:10:16;11.90;84.50
32809;DHT22;19159;48.178;16.386;2024-03-08T13:12:45;11.90;84.30
32809;DHT22;19159;48.178;16.386;2024-03-08T13:15:11;11.80;84.50
32809;DHT22;19159;48.178;16.386;2024-03-08T13:17:41;11.70;84.30
32809;DHT22;19159;48.178;16.386;2024-03-08T13:20:08;11.60;84.80
32809;DHT22;19159;48.178;16.386;2024-03-08T13:22:35;11.60;85.10
32809;DHT22;19159;48.178;16.386;2024-03-08T13:25:01;11.70;84.90
32809;DHT22;19159;48.178;16.386;2024-03-08T13:27:49;11.80;84.50
32809;DHT22;19159;48.178;16.386;2024-03-08T13:30:19;11.60;84.50
32809;DHT22;19159;48.178;16.386;2024-03-08T13:32:51;11.80;84.70
32809;DHT22;19159;48.178;16.386;2024-03-08T13:35:18;11.70;84.70
32809;DHT22;19159;48.178;16.386;2024-03-08T13:37:51;11.70;84.30
32809;DHT22;19159;48.178;16.386;2024-03-08T13:40:17;11.80;84.00
32809;DHT22;19159;48.178;16.386;2024-03-08T13:42:46;11.50;84.40
32809;DHT22;19159;48.178;16.386;2024-03-08T13:45:12;11.60;84.30
32809;DHT22;19159;48.178;16.386;2024-03-08T13:47:38;11.80;84.10
32809;DHT22;19159;48.178;16.386;2024-03-08T13:50:08;11.70;83.90
32809;DHT22;19159;48.178;16.386;2024-03-08T13:52:37;11.70;83.60
32809;DHT22;19159;48.178;16.386;2024-03-08T13:55:04;11.80;84.30
32809;DHT22;19159;48.178;16.386;2024-03-08T13:57:31;12.10;83.60
32809;DHT22;19159;48.178;16.386;2024-03-08T13:59:57;12.00;82.50
32809;DHT22;19159;48.178;16.386;2024-03-08T14:02:23;12.20;82.70
32809;DHT22;19159;48.178;16.386;2024-03-08T14:04:53;12.20;82.70
32809;DHT22;19159;48.178;16.386;2024-03-08T14:07:23;11.80;83.50
32809;DHT22;19159;48.178;16.386;2024-03-08T14:09:51;11.80;83.80
32809;DHT22;19159;48.178;16.386;2024-03-08T14:12:18;11.90;83.70
32809;DHT22;19159;48.178;16.386;2024-03-08T14:14:44;12.20;83.10
32809;DHT22;19159;48.178;16.386;2024-03-08T14:17:10;12.30;83.20
32809;DHT22;19159;48.178;16.386;2024-03-08T14:19:37;12.50;82.80
32809;DHT22;19159;48.178;16.386;2024-03-08T14:22:04;12.60;81.70
32809;DHT22;19159;48.178;16.386;2024-03-08T14:24:30;12.40;82.30
32809;DHT22;19159;48.178;16.386;2024-03-08T14:26:56;12.20;81.80
32809;DHT22;19159;48.178;16.386;2024-03-08T14:29:25;12.00;82.70
32809;DHT22;19159;48.178;16.386;2024-03-08T14:31:55;11.90;82.30
32809;DHT22;19159;48.178;16.386;2024-03-08T14:34:24;12.10;82.40
32809;DHT22;19159;48.178;16.386;2024-03-08T14:36:52;11.70;81.20
32809;DHT22;19159;48.178;16.386;2024-03-08T14:39:19;11.60;81.80
32809;DHT22;19159;48.178;16.386;2024-03-08T14:41:52;11.80;81.80
32809;DHT22;19159;48.178;16.386;2024-03-08T14:44:22;12.00;81.30
32809;DHT22;19159;48.178;16.386;2024-03-08T14:46:55;11.80;80.30
32809;DHT22;19159;48.178;16.386;2024-03-08T14:49:22;11.90;80.20
32809;DHT22;19159;48.178;16.386;2024-03-08T14:51:48;11.60;80.20
32809;DHT22;19159;48.178;16.386;2024-03-08T14:54:14;11.30;80.60
32809;DHT22;19159;48.178;16.386;2024-03-08T14:56:39;11.30;81.20
32809;DHT22;19159;48.178;16.386;2024-03-08T14:59:08;11.30;81.30
32809;DHT22;19159;48.178;16.386;2024-03-08T15:01:36;11.20;82.10
32809;DHT22;19159;48.178;16.386;2024-03-08T15:04:02;11.40;82.60
32809;DHT22;19159;48.178;16.386;2024-03-08T15:06:40;11.30;82.50
32809;DHT22;19159;48.178;16.386;2024-03-08T15:09:08;11.30;83.00
32809;DHT22;19159;48.178;16.386;2024-03-08T15:11:45;11.10;83.50
32809;DHT22;19159;48.178;16.386;2024-03-08T15:14:11;10.90;84.40
32809;DHT22;19159;48.178;16.386;2024-03-08T15:16:39;10.80;84.80
32809;DHT22;19159;48.178;16.386;2024-03-08T15:19:10;10.80;85.10
32809;DHT22;19159;48.178;16.386;2024-03-08T15:21:38;10.80;85.10
32809;DHT22;19159;48.178;16.386;2024-03-08T15:24:03;10.70;85.00
32809;DHT22;19159;48.178;16.386;2024-03-08T15:26:29;10.80;84.90
32809;DHT22;19159;48.178;16.386;2024-03-08T15:28:57;11.10;84.50
32809;DHT22;19159;48.178;16.386;2024-03-08T15:31:24;10.90;83.60
32809;DHT22;19159;48.178;16.386;2024-03-08T15:33:54;10.80;83.80
32809;DHT22;19159;48.178;16.386;2024-03-08T15:36:27;10.70;83.90
32809;DHT22;19159;48.178;16.386;2024-03-08T15:39:00;10.80;83.80
32809;DHT22;19159;48.178;16.386;2024-03-08T15:41:29;10.80;83.50
32809;DHT22;19159;48.178;16.386;2024-03-08T15:43:57;10.70;83.80
32809;DHT22;19159;48.178;16.386;2024-03-08T15:46:25;10.70;83.30
32809;DHT22;19159;48.178;16.386;2024-03-08T15:48:56;10.80;83.20
32809;DHT22;19159;48.178;16.386;2024-03-08T15:51:23;11.10;82.80
32809;DHT22;19159;48.178;16.386;2024-03-08T15:53:51;11.10;82.30
32809;DHT22;19159;48.178;16.386;2024-03-08T15:56:21;11.30;81.90
32809;DHT22;19159;48.178;16.386;2024-03-08T15:58:49;11.10;82.80